Terminal Aerodrome Forecast
Issued by NWS Wichita, KS

Home | Current Version | Previous Version | Graphics & Text | Print | Product List | Glossary On
Versions: 1 2 3 4 5 6 7 8 9 10 11 12
000
FTUS43 KICT 091720
TAFICT
TAF
KICT 091720Z 0918/1018 33015KT P6SM SKC
     FM092200 31007KT P6SM SKC
     FM100000 VRB03KT P6SM SKC
     FM100500 24004KT P6SM SKC
     FM101300 33007KT P6SM SKC=

USA.gov is the U.S. government's official web portal to all federal, state and local government web resources and services.